Overview Statistics Trail Chart Weather Telemetry Raw packets
 

This is the latest recevied weather packets stored in our database for station/object CT7BNL-13. If no packets are shown the sender has not sent any weather packets the latest 10 day(s).

<< 17 18 19 20 21 22 23 >>
Time Temp. Humidity Pressure Rain* Wind** Luminosity Snow
1788185966 27.22° C 39% 1026.6 hPa 0 mm - 727 W/m² -
1788185065 27.22° C 42% 1026.8 hPa 0 mm - 754 W/m² -
1788184165 27.22° C 41% 1027.1 hPa 0 mm - 785 W/m² -
1788183266 25° C 47% 1027.1 hPa 0 mm - 728 W/m² -
1788182365 25° C 47% 1027.3 hPa 0 mm - 855 W/m² -
1788181466 24.44° C 52% 1027.3 hPa 0 mm - 635 W/m² -
1788180565 24.44° C 51% 1027.4 hPa 0 mm - 776 W/m² -
1788179665 24.44° C 52% 1027.4 hPa 0 mm - 431 W/m² -
1788178765 23.89° C 52% 1027.4 hPa 0 mm - 806 W/m² -
1788177865 24.44° C 52% 1027.5 hPa 0 mm - 433 W/m² -
1788176965 23.33° C 56% 1027.7 hPa 0 mm - 822 W/m² -
1788176065 23.33° C 59% 1028 hPa 0 mm - 810 W/m² -
1788175165 22.78° C 63% 1028.2 hPa 0 mm - 783 W/m² -
1788174266 22.78° C 62% 1028.2 hPa 0 mm - 763 W/m² -
1788173366 21.11° C 69% 1028.2 hPa 0 mm - 739 W/m² -
1788172465 20.56° C 70% 1028.4 hPa 0 mm - 706 W/m² -
1788171565 21.11° C 69% 1028.5 hPa 0 mm - 681 W/m² -
1788170665 20° C 73% 1028.6 hPa 0 mm - 658 W/m² -
1788169765 20° C 75% 1028.6 hPa 0 mm - 625 W/m² -
1788168866 18.89° C 78% 1028.2 hPa 0 mm - 540 W/m² -
1788167966 18.89° C 77% 1028.5 hPa 0 mm - 592 W/m² -
1788167065 16.11° C 90% 1028.3 hPa 0 mm - 282 W/m² -
1788165266 15° C 92% 1028.4 hPa 0 mm - 154 W/m² -
1788164365 15° C 92% 1028.2 hPa 0 mm - 139 W/m² -
1788163465 14.44° C 97% 1028.2 hPa 0 mm - 133 W/m² -

* Rain latest hour (hover to see other rain measurements)
** Current wind speed in m/s (hover to see current wind gust speed)